createdAt,value
2019-04-26T00:02:32.182Z,4.37
2019-04-26T00:05:01.064Z,4.47
2019-04-26T00:07:29.597Z,4.53
2019-04-26T00:10:00.022Z,4.40
2019-04-26T00:12:30.817Z,4.67
2019-04-26T00:15:19.430Z,5.50
2019-04-26T00:17:50.076Z,5.17
2019-04-26T00:20:19.109Z,4.70
2019-04-26T00:22:47.918Z,4.40
2019-04-26T00:25:16.617Z,5.20
2019-04-26T00:27:45.222Z,5.27
2019-04-26T00:30:14.907Z,4.80
2019-04-26T00:32:43.601Z,4.70
2019-04-26T00:35:12.897Z,5.13
2019-04-26T00:37:42.694Z,4.80
2019-04-26T00:40:11.867Z,5.10
2019-04-26T00:42:41.640Z,5.10
2019-04-26T00:45:10.192Z,5.20
2019-04-26T00:47:39.206Z,5.33
2019-04-26T00:50:09.819Z,5.43
2019-04-26T00:52:40.780Z,5.13
2019-04-26T00:55:09.664Z,4.83
2019-04-26T00:57:39.356Z,5.93
2019-04-26T01:00:11.019Z,4.83
2019-04-26T01:02:41.404Z,5.23
2019-04-26T01:05:10.056Z,5.30
2019-04-26T01:07:39.889Z,5.47
2019-04-26T01:10:08.989Z,4.93
2019-04-26T01:12:37.759Z,6.50
2019-04-26T01:15:08.390Z,4.90
2019-04-26T01:17:37.426Z,5.17
2019-04-26T01:20:06.916Z,5.30
2019-04-26T01:22:39.040Z,5.23
2019-04-26T01:25:10.554Z,5.37
2019-04-26T01:27:39.424Z,4.67
2019-04-26T01:30:11.259Z,5.90
2019-04-26T01:32:42.133Z,4.60
2019-04-26T01:35:11.215Z,5.17
2019-04-26T01:37:43.440Z,5.70
2019-04-26T01:40:13.830Z,4.87
2019-04-26T01:42:52.935Z,4.47
2019-04-26T01:45:27.875Z,4.60
2019-04-26T01:47:59.618Z,5.03
2019-04-26T01:50:30.316Z,4.87
2019-04-26T01:53:00.012Z,5.13
2019-04-26T01:55:29.905Z,5.17
2019-04-26T01:58:00.878Z,5.50
2019-04-26T02:00:34.682Z,5.30
2019-04-26T02:03:08.065Z,4.63
2019-04-26T02:05:36.778Z,5.17
2019-04-26T02:08:05.478Z,5.40
2019-04-26T02:10:34.207Z,5.07
2019-04-26T02:13:02.961Z,5.50
2019-04-26T02:15:33.574Z,5.70
2019-04-26T02:18:03.667Z,4.80
2019-04-26T02:20:44.591Z,5.53
2019-04-26T02:23:32.129Z,4.73
2019-04-26T02:26:19.413Z,5.53
2019-04-26T02:28:49.083Z,6.53
2019-04-26T02:31:17.936Z,5.30
2019-04-26T02:33:46.629Z,4.73
2019-04-26T02:36:16.234Z,6.57
2019-04-26T02:38:46.175Z,5.70
2019-04-26T02:41:15.329Z,7.07
2019-04-26T02:43:46.011Z,5.90
2019-04-26T02:46:19.332Z,5.33
2019-04-26T02:48:52.534Z,6.17
2019-04-26T02:51:28.448Z,5.50
2019-04-26T02:54:06.374Z,5.60
2019-04-26T02:56:40.233Z,5.97
2019-04-26T02:59:23.666Z,6.33
2019-04-26T03:01:55.295Z,5.70
2019-04-26T03:04:26.401Z,6.20
2019-04-26T03:07:03.661Z,5.37
2019-04-26T03:09:33.254Z,7.37
2019-04-26T03:12:16.782Z,6.00
2019-04-26T03:15:12.176Z,6.03
2019-04-26T03:17:35.631Z,5.77
2019-04-26T03:20:24.456Z,6.57
2019-04-26T03:22:58.587Z,5.83
2019-04-26T03:25:40.245Z,5.70
2019-04-26T03:28:21.432Z,6.77
2019-04-26T03:31:05.108Z,7.77
2019-04-26T03:33:58.035Z,7.40
2019-04-26T03:36:42.097Z,6.67
2019-04-26T03:39:14.848Z,7.40
2019-04-26T03:42:12.001Z,8.17
2019-04-26T03:44:49.445Z,7.63
2019-04-26T03:47:24.058Z,6.40
2019-04-26T03:50:04.544Z,6.97
2019-04-26T03:52:40.080Z,6.83
2019-04-26T03:55:29.118Z,6.50
2019-04-26T03:58:05.501Z,6.00
2019-04-26T04:00:43.351Z,7.20
2019-04-26T04:03:19.420Z,6.50
2019-04-26T04:05:52.434Z,6.57
2019-04-26T04:08:26.746Z,7.03
2019-04-26T04:11:07.375Z,8.17
2019-04-26T04:13:45.651Z,7.13
2019-04-26T04:16:27.086Z,7.17
2019-04-26T04:18:58.785Z,7.07
2019-04-26T04:21:48.309Z,6.70
2019-04-26T04:24:20.037Z,7.17
2019-04-26T04:27:08.351Z,6.77
2019-04-26T04:29:50.033Z,6.33
2019-04-26T04:32:32.629Z,6.07
2019-04-26T04:35:06.423Z,7.07
2019-04-26T04:37:56.352Z,7.13
2019-04-26T04:40:20.938Z,6.50
2019-04-26T04:43:09.437Z,7.53
2019-04-26T04:46:08.285Z,6.70
2019-04-26T04:48:49.080Z,7.10
2019-04-26T04:51:26.123Z,6.40
2019-04-26T04:54:04.156Z,6.67
2019-04-26T04:56:57.339Z,6.83
2019-04-26T04:59:44.230Z,6.60
2019-04-26T05:02:26.492Z,5.90
2019-04-26T05:05:05.179Z,6.17
2019-04-26T05:08:07.091Z,7.00
2019-04-26T05:11:01.841Z,6.70
2019-04-26T05:13:35.933Z,6.50
2019-04-26T05:16:12.014Z,7.60
2019-04-26T05:19:06.831Z,6.60
2019-04-26T05:21:41.397Z,7.23
2019-04-26T05:24:33.017Z,7.27
2019-04-26T05:27:31.800Z,6.73
2019-04-26T05:30:17.029Z,7.60
2019-04-26T05:32:54.756Z,6.47
2019-04-26T05:36:03.068Z,6.23
2019-04-26T05:38:40.786Z,7.53
2019-04-26T05:41:48.105Z,7.30
2019-04-26T05:45:10.613Z,6.00
2019-04-26T05:48:04.270Z,6.67
2019-04-26T05:50:55.822Z,7.10
2019-04-26T05:54:08.158Z,7.23
2019-04-26T05:56:56.658Z,7.30
2019-04-26T05:59:31.319Z,7.00
2019-04-26T06:02:46.732Z,8.00
2019-04-26T06:05:26.326Z,6.50
2019-04-26T06:08:30.605Z,6.20
2019-04-26T06:10:55.867Z,7.07
2019-04-26T06:13:49.680Z,7.60
2019-04-26T06:16:37.845Z,8.43
2019-04-26T06:19:16.870Z,5.90
2019-04-26T06:22:00.791Z,6.17
2019-04-26T06:25:02.584Z,4.90
2019-04-26T06:27:49.564Z,4.63
2019-04-26T06:30:26.891Z,4.27
2019-04-26T06:33:07.644Z,4.10
2019-04-26T06:57:20.088Z,3.67
2019-04-26T07:00:14.532Z,4.47
2019-04-26T07:03:10.337Z,3.63
2019-04-26T07:29:49.153Z,3.63
2019-04-26T07:32:29.568Z,3.75
2019-04-26T07:35:20.868Z,3.70
2019-04-26T07:37:55.416Z,3.63
2019-04-26T07:40:48.674Z,3.30
2019-04-26T07:43:41.669Z,3.30
2019-04-26T07:46:36.312Z,3.70
2019-04-26T07:49:33.764Z,2.90
2019-04-26T07:52:34.285Z,3.40
2019-04-26T07:55:14.970Z,3.33
2019-04-26T07:58:03.598Z,3.77
2019-04-26T08:00:45.140Z,3.20
2019-04-26T08:03:42.054Z,2.50
2019-04-26T08:06:19.417Z,3.50
2019-04-26T08:08:54.034Z,2.83
2019-04-26T08:11:37.653Z,3.07
2019-04-26T08:14:12.641Z,3.10
2019-04-26T08:16:54.720Z,3.07
2019-04-26T08:19:26.855Z,3.70
2019-04-26T08:22:14.843Z,3.37
2019-04-26T08:24:32.980Z,4.13
2019-04-26T08:27:13.680Z,3.10
2019-04-26T08:29:40.975Z,3.40
2019-04-26T08:32:13.938Z,2.90
2019-04-26T08:34:45.682Z,3.90
2019-04-26T08:37:36.488Z,3.50
2019-04-26T08:40:08.341Z,3.40
2019-04-26T08:42:57.008Z,3.90
2019-04-26T08:45:27.668Z,3.53
2019-04-26T08:48:15.546Z,3.90
2019-04-26T08:50:49.074Z,3.57
2019-04-26T08:53:19.661Z,3.90
2019-04-26T08:55:50.538Z,3.33
2019-04-26T08:58:25.057Z,3.77
2019-04-26T09:01:01.519Z,2.93
2019-04-26T09:03:34.710Z,3.70
2019-04-26T09:06:16.679Z,3.90
2019-04-26T09:08:48.268Z,3.73
2019-04-26T09:11:25.829Z,3.07
2019-04-26T09:13:52.369Z,3.50
2019-04-26T09:16:21.816Z,3.23
2019-04-26T09:18:54.184Z,2.80
2019-04-26T09:21:23.425Z,3.57
2019-04-26T09:23:53.750Z,3.60
2019-04-26T09:26:24.770Z,3.70
2019-04-26T09:29:10.561Z,3.90
2019-04-26T09:31:41.561Z,3.40
2019-04-26T09:34:21.303Z,3.20
2019-04-26T09:36:49.991Z,3.80
2019-04-26T09:39:18.850Z,4.00
2019-04-26T09:41:47.693Z,3.50
2019-04-26T09:44:17.939Z,4.13
2019-04-26T09:46:54.363Z,3.23
2019-04-26T09:49:44.007Z,3.97
2019-04-26T09:52:17.411Z,3.93
2019-04-26T09:54:45.995Z,4.53
2019-04-26T09:57:14.737Z,4.13
2019-04-26T09:59:43.512Z,4.30
2019-04-26T10:02:12.298Z,4.13
2019-04-26T10:04:40.914Z,4.00
2019-04-26T10:07:09.593Z,4.10
2019-04-26T10:09:38.345Z,4.87
2019-04-26T10:12:14.710Z,4.13
2019-04-26T10:14:47.852Z,4.40
2019-04-26T10:17:23.923Z,3.80
2019-04-26T10:19:53.817Z,4.80
2019-04-26T10:22:24.336Z,4.50
2019-04-26T10:24:53.021Z,4.13
2019-04-26T10:27:21.717Z,4.77
2019-04-26T10:29:50.376Z,4.30
2019-04-26T10:32:21.775Z,4.63
2019-04-26T10:34:49.899Z,3.97
2019-04-26T10:37:18.598Z,4.40
2019-04-26T10:39:48.375Z,4.70
2019-04-26T10:42:17.639Z,4.47
2019-04-26T10:44:46.286Z,4.43
2019-04-26T10:47:15.809Z,4.40
2019-04-26T10:49:48.296Z,4.13
2019-04-26T10:52:28.297Z,4.40
2019-04-26T10:55:07.403Z,6.20
2019-04-26T10:57:37.679Z,5.97
2019-04-26T11:00:09.177Z,5.23
2019-04-26T11:02:37.873Z,5.30
2019-04-26T11:05:07.742Z,4.97
2019-04-26T11:07:37.331Z,4.90
2019-04-26T11:10:06.895Z,4.73
2019-04-26T11:12:35.533Z,4.07
2019-04-26T11:15:06.219Z,4.87
2019-04-26T11:17:35.065Z,4.20
2019-04-26T11:20:10.255Z,5.23
2019-04-26T11:22:37.613Z,4.60
2019-04-26T11:25:07.736Z,4.67
2019-04-26T11:27:36.503Z,5.23
2019-04-26T11:30:11.688Z,5.30
2019-04-26T11:32:38.207Z,4.80
2019-04-26T11:35:07.103Z,4.70
2019-04-26T11:37:35.761Z,5.27
2019-04-26T11:40:10.155Z,4.63
2019-04-26T11:42:37.088Z,4.93
2019-04-26T11:45:10.687Z,5.10
2019-04-26T11:47:54.337Z,5.27
2019-04-26T11:50:12.414Z,4.63
2019-04-26T11:52:42.148Z,4.83
2019-04-26T11:55:10.937Z,5.97
2019-04-26T11:57:40.072Z,4.43
2019-04-26T12:00:10.633Z,4.70
2019-04-26T12:02:39.108Z,5.30
2019-04-26T12:05:27.505Z,5.73
2019-04-26T12:08:09.887Z,5.37
2019-04-26T12:10:40.460Z,5.37
2019-04-26T12:13:09.345Z,5.47
2019-04-26T12:15:39.164Z,4.90
2019-04-26T12:18:09.680Z,5.33
2019-04-26T12:20:38.684Z,5.10
2019-04-26T12:23:07.295Z,6.00
2019-04-26T12:25:38.772Z,6.20
2019-04-26T12:28:07.381Z,7.37
2019-04-26T12:30:36.529Z,7.35
2019-04-26T12:33:05.080Z,7.00
2019-04-26T12:35:33.715Z,6.00
2019-04-26T12:38:02.777Z,7.10
2019-04-26T12:40:31.444Z,6.95
2019-04-26T12:43:00.157Z,5.60
2019-04-26T12:45:42.129Z,6.85
2019-04-26T12:48:15.675Z,6.90
2019-04-26T12:50:42.866Z,6.90
2019-04-26T12:53:11.624Z,6.57
2019-04-26T12:55:40.219Z,6.85
2019-04-26T12:58:11.026Z,6.53
2019-04-26T13:00:52.974Z,6.10
2019-04-26T13:03:19.741Z,7.10
2019-04-26T13:05:40.452Z,7.23
2019-04-26T13:08:09.125Z,6.43
2019-04-26T13:10:45.724Z,6.20
2019-04-26T13:13:16.010Z,5.90
2019-04-26T13:15:51.797Z,6.77
2019-04-26T13:18:20.521Z,6.20
2019-04-26T13:20:49.252Z,6.60
2019-04-26T13:23:17.923Z,5.60
2019-04-26T13:25:46.926Z,6.03
2019-04-26T13:28:20.183Z,6.35
2019-04-26T13:30:46.870Z,6.87
2019-04-26T13:33:15.403Z,6.50
2019-04-26T13:35:50.689Z,6.30
2019-04-26T13:38:15.591Z,5.97
2019-04-26T13:40:44.388Z,6.30
2019-04-26T13:43:13.606Z,5.87
2019-04-26T13:46:00.620Z,5.60
2019-04-26T13:48:46.494Z,5.70
2019-04-26T13:51:22.748Z,5.17
2019-04-26T13:53:54.201Z,5.80
2019-04-26T13:56:21.940Z,5.30
2019-04-26T13:58:54.182Z,5.70
2019-04-26T14:01:20.928Z,5.25
2019-04-26T14:03:49.553Z,5.50
2019-04-26T14:06:18.256Z,5.30
2019-04-26T14:08:46.790Z,5.75
2019-04-26T14:11:15.530Z,5.90
2019-04-26T14:13:44.278Z,5.70
2019-04-26T14:16:13.200Z,4.80
2019-04-26T14:18:42.012Z,5.40
2019-04-26T14:21:10.951Z,5.50
2019-04-26T14:23:45.376Z,6.20
2019-04-26T14:26:16.012Z,5.90
2019-04-26T14:28:44.536Z,5.57
2019-04-26T14:31:16.325Z,5.97
2019-04-26T14:33:43.973Z,5.80
2019-04-26T14:36:18.135Z,6.13
2019-04-26T14:38:43.069Z,5.10
2019-04-26T14:41:13.567Z,4.50
2019-04-26T14:43:41.928Z,6.00
2019-04-26T14:46:14.627Z,5.90
2019-04-26T14:48:44.632Z,5.70
2019-04-26T14:51:16.209Z,6.40
2019-04-26T14:53:42.466Z,6.87
2019-04-26T14:56:11.703Z,6.80
2019-04-26T14:58:40.340Z,7.90
2019-04-26T15:01:14.082Z,8.10
2019-04-26T15:04:01.100Z,8.00
2019-04-26T15:06:32.203Z,8.40
2019-04-26T15:09:02.947Z,9.00
2019-04-26T15:11:32.272Z,8.73
2019-04-26T15:14:04.288Z,8.50
2019-04-26T15:16:33.178Z,8.70
2019-04-26T15:19:01.880Z,8.53
2019-04-26T15:21:31.714Z,10.40
2019-04-26T15:24:00.836Z,11.67
2019-04-26T15:26:29.914Z,12.40
2019-04-26T15:28:59.535Z,13.20
2019-04-26T15:31:28.152Z,14.43
2019-04-26T15:33:56.994Z,16.77
2019-04-26T15:36:26.206Z,17.77
2019-04-26T15:38:55.649Z,16.37
2019-04-26T15:41:26.601Z,19.50
2019-04-26T15:46:48.338Z,21.53
2019-04-26T15:49:15.703Z,23.57
2019-04-26T15:51:44.363Z,24.43
2019-04-26T15:54:12.877Z,25.97
2019-04-26T15:56:41.493Z,28.20
2019-04-26T15:59:10.225Z,27.33
2019-04-26T16:01:41.847Z,29.87
2019-04-26T16:04:09.103Z,29.50
2019-04-26T16:06:41.979Z,29.80
2019-04-26T16:09:09.440Z,29.33
2019-04-26T16:11:42.285Z,30.47
2019-04-26T16:14:08.551Z,30.83
2019-04-26T16:16:37.257Z,30.30
2019-04-26T16:19:05.881Z,30.77
2019-04-26T16:21:34.643Z,31.07
2019-04-26T16:24:03.207Z,33.37
2019-04-26T16:26:32.944Z,31.93
2019-04-26T16:29:03.511Z,29.15
2019-04-26T16:31:53.886Z,32.80
2019-04-26T16:34:29.863Z,32.03
2019-04-26T16:36:58.583Z,29.15
2019-04-26T16:39:32.357Z,30.37
2019-04-26T16:42:05.144Z,29.60
2019-04-26T16:44:31.851Z,29.47
2019-04-26T16:47:05.662Z,29.93
2019-04-26T16:49:35.130Z,28.93
2019-04-26T16:57:06.654Z,28.70
2019-04-26T16:59:33.331Z,27.30
2019-04-26T17:02:02.769Z,26.57
2019-04-26T17:07:04.278Z,28.30
2019-04-26T17:12:02.504Z,28.60
2019-04-26T17:14:33.975Z,26.97
2019-04-26T17:17:03.170Z,28.40
2019-04-26T17:19:37.453Z,29.90
2019-04-26T17:29:49.084Z,30.65
2019-04-26T17:32:17.849Z,29.20
2019-04-26T17:47:11.506Z,31.50
2019-04-26T17:54:47.533Z,31.27
2019-04-26T17:57:14.448Z,33.43
2019-04-26T18:02:31.535Z,33.95
2019-04-26T18:14:43.695Z,32.07
